Davis Prairie, Texas
Current Conditions -  °F | °C
As of 12:55 PM on Sunday 23 Nov 2014 (Local Time) from KLXY Reporting Station
Clear Clear  
Wind Chill: 74°   Ceiling: Unl
Heat Index: 74°   Visibility: 10mi
Dew Point: 49°   Wind: 16mph
Humidity: 41%   Direction: 220°SW
Pressure: 29.47"   Gusts: 25mph
Location:  31.4027°N, 96.4988°W
Report Text: KLXY 231855Z AUTO 22014G22KT 10SM CLR 23/09 A2947 RMK AO2 T02320092
Loading
Personal Weather Stations






























Interactive Weather Map New forecast layout! Learn more

10-Day Weather Forecast

Advertisements
Track Severe Weather on mobile